Terminal Aerodrome Forecast
Issued by NWS Atlanta, GA

Home | Current Version | Previous Version | Text Only | Print | Product List | Glossary On
Versions: 1 2 3 4 5 6 7 8 9 10 11 12 13 14 15 16 17 18 19 20
000
FTUS42 KFFC 081121
TAFCSG
TAF
KCSG 081121Z 0812/0912 32010KT P6SM SCT020 BKN120
     FM081500 35011KT P6SM FEW035 BKN100
     FM081800 35013G23KT P6SM SCT050 BKN120
     FM090000 35010KT P6SM SCT120 BKN250
     FM090400 35007KT P6SM BKN250=

USA.gov is the U.S. government's official web portal to all federal, state and local government web resources and services.